Time;durP1;ratioP1;P1;durP2;ratioP2;P2;SDS_P1;SDS_P2;PMS_P1;PMS_P2;Temp;Humidity;BMP_temperature;BMP_pressure;BME280_temperature;BME280_humidity;BME280_pressure;Samples;Min_cycle;Max_cycle;Signal;HPM_P1;HPM_P2
2024/03/23 00:01:16;;;;;;;8.57;3.92;;;10.30;46.70;;;;;;5088914;28;20058;-83
2024/03/23 00:04:03;;;;;;;5.53;3.80;;;10.40;49.60;;;;;;5081514;28;20048;-85
2024/03/23 00:06:50;;;;;;;9.32;3.67;;;10.30;50.30;;;;;;5090340;28;20048;-82
2024/03/23 00:09:38;;;;;;;5.55;3.50;;;10.30;53.00;;;;;;5081553;28;20040;-79
2024/03/23 00:12:25;;;;;;;7.43;3.70;;;10.40;53.90;;;;;;5085343;28;20062;-83
2024/03/23 00:15:12;;;;;;;8.45;3.47;;;10.40;53.20;;;;;;5059178;28;20127;-78
2024/03/23 00:18:02;;;;;;;6.97;3.83;;;10.40;53.20;;;;;;5071932;28;20052;-83
2024/03/23 00:20:54;;;;;;;4.95;3.40;;;10.40;51.70;;;;;;5075645;28;20052;-84
2024/03/23 00:23:42;;;;;;;8.05;3.55;;;10.30;55.10;;;;;;5061700;28;20498;-81
2024/03/23 00:26:31;;;;;;;4.63;4.05;;;10.30;55.60;;;;;;5075732;28;20040;-84
2024/03/23 00:29:18;;;;;;;6.35;3.75;;;10.20;62.10;;;;;;5077592;28;20421;-84
2024/03/23 00:32:05;;;;;;;6.60;3.95;;;10.20;67.70;;;;;;5076540;28;20050;-83
2024/03/23 00:34:52;;;;;;;6.93;3.72;;;10.20;68.90;;;;;;5091750;28;20112;-83
2024/03/23 00:37:40;;;;;;;5.88;3.35;;;10.10;79.10;;;;;;5062469;28;20050;-82
2024/03/23 00:40:27;;;;;;;7.70;3.47;;;10.10;83.50;;;;;;5061052;28;20058;-80
2024/03/23 00:43:14;;;;;;;8.20;3.75;;;10.20;85.00;;;;;;5075583;28;20048;-79
2024/03/23 00:46:01;;;;;;;4.63;2.85;;;10.30;82.80;;;;;;5061707;28;20117;-84
2024/03/23 00:48:49;;;;;;;6.20;3.60;;;10.40;78.50;;;;;;5074891;28;20036;-82
2024/03/23 00:51:35;;;;;;;6.53;3.50;;;10.40;73.00;;;;;;5087820;28;20044;-81
2024/03/23 00:54:22;;;;;;;4.93;3.30;;;10.40;67.40;;;;;;5087670;28;20265;-83
2024/03/23 00:57:08;;;;;;;5.85;3.33;;;10.30;64.90;;;;;;5077033;28;20040;-83
2024/03/23 00:59:54;;;;;;;6.95;3.75;;;10.20;83.10;;;;;;5084934;28;20044;-83
2024/03/23 01:02:41;;;;;;;8.32;3.83;;;10.00;74.20;;;;;;5076700;28;20044;-84
2024/03/23 01:05:27;;;;;;;6.47;3.40;;;9.90;85.20;;;;;;5075298;28;20040;-82
2024/03/23 01:08:13;;;;;;;5.05;3.78;;;9.80;99.90;;;;;;5076824;28;20059;-84
2024/03/23 01:11:01;;;;;;;6.80;3.38;;;9.90;98.30;;;;;;5060895;28;20036;-83
2024/03/23 01:13:47;;;;;;;4.55;3.30;;;9.90;99.90;;;;;;5072788;28;20040;-83
2024/03/23 01:16:34;;;;;;;5.28;3.40;;;10.00;99.90;;;;;;5075332;28;20048;-83
2024/03/23 01:19:20;;;;;;;5.53;3.47;;;10.00;99.90;;;;;;5075541;28;20050;-84
2024/03/23 01:22:07;;;;;;;5.40;3.22;;;10.00;99.90;;;;;;5077309;28;20052;-83
2024/03/23 01:24:53;;;;;;;5.63;4.05;;;10.00;99.90;;;;;;5095097;28;20032;-81
2024/03/23 01:27:39;;;;;;;7.47;3.20;;;10.10;99.90;;;;;;5084450;28;20047;-84
2024/03/23 01:30:25;;;;;;;7.25;3.80;;;10.00;99.90;;;;;;5086551;28;20047;-82
2024/03/23 01:33:12;;;;;;;8.70;3.22;;;9.90;99.90;;;;;;5097838;28;20139;-80
2024/03/23 01:35:58;;;;;;;4.72;3.50;;;9.80;99.90;;;;;;5080231;28;20044;-81
2024/03/23 01:38:44;;;;;;;5.50;3.10;;;9.80;99.90;;;;;;5075852;28;20054;-83
2024/03/23 01:41:31;;;;;;;6.57;3.30;;;9.90;99.90;;;;;;5074157;28;20056;-83
2024/03/23 01:44:17;;;;;;;5.05;3.50;;;10.00;99.90;;;;;;5059138;28;20077;-82
2024/03/23 01:47:04;;;;;;;6.30;2.90;;;10.00;99.90;;;;;;5059627;28;20142;-81
2024/03/23 01:49:51;;;;;;;3.85;3.20;;;10.00;99.90;;;;;;5073809;28;20046;-81
2024/03/23 01:52:37;;;;;;;9.35;3.80;;;9.90;99.90;;;;;;5073288;28;20048;-81
2024/03/23 01:55:24;;;;;;;7.30;3.60;;;9.80;99.90;;;;;;5073912;28;20044;-84
2024/03/23 01:58:10;;;;;;;5.78;3.22;;;10.10;99.90;;;;;;5073774;28;20085;-83
2024/03/23 02:00:58;;;;;;;4.75;3.28;;;10.20;99.90;;;;;;5073274;28;20048;-81
2024/03/23 02:03:44;;;;;;;5.20;3.00;;;10.30;99.90;;;;;;5083470;28;20040;-81
2024/03/23 02:06:31;;;;;;;7.28;3.50;;;10.40;99.90;;;;;;5058324;28;20044;-84
2024/03/23 02:09:17;;;;;;;6.13;3.53;;;10.40;99.90;;;;;;5085048;28;20056;-82
2024/03/23 02:12:04;;;;;;;6.60;2.83;;;10.40;99.90;;;;;;5070412;28;20040;-82
2024/03/23 02:14:50;;;;;;;3.85;3.10;;;10.40;99.90;;;;;;5073384;28;20475;-82
2024/03/23 02:17:36;;;;;;;6.47;3.22;;;10.50;99.90;;;;;;5069805;28;20055;-82
2024/03/23 02:20:23;;;;;;;4.55;3.10;;;10.50;99.90;;;;;;5057880;28;20048;-83
2024/03/23 02:23:16;;;;;;;6.18;3.00;;;10.50;99.90;;;;;;5056927;28;20047;-83
2024/03/23 02:26:02;;;;;;;5.47;3.42;;;10.40;99.90;;;;;;5071140;28;20047;-82
2024/03/23 02:28:49;;;;;;;5.25;2.78;;;10.40;99.90;;;;;;5073690;28;20050;-81
2024/03/23 02:31:36;;;;;;;6.13;3.38;;;10.40;99.90;;;;;;5071515;28;20116;-84
2024/03/23 02:34:22;;;;;;;4.43;3.00;;;10.30;99.90;;;;;;5070505;28;20050;-83
2024/03/23 02:37:11;;;;;;;5.90;3.42;;;10.30;99.90;;;;;;5070971;28;20044;-85
2024/03/23 02:39:58;;;;;;;3.90;2.97;;;10.20;99.90;;;;;;5058225;28;20044;-78
2024/03/23 02:42:44;;;;;;;4.57;3.17;;;10.20;99.90;;;;;;5081219;28;20040;-81
2024/03/23 02:45:31;;;;;;;4.60;3.42;;;10.10;99.90;;;;;;5051925;28;20047;-80
2024/03/23 02:48:17;;;;;;;4.97;3.10;;;10.00;99.90;;;;;;5080086;28;20043;-82
2024/03/23 02:51:04;;;;;;;4.78;3.17;;;9.90;99.90;;;;;;5057206;28;20044;-83
2024/03/23 02:53:51;;;;;;;5.72;3.33;;;9.90;99.90;;;;;;5065246;28;20055;-82
2024/03/23 02:56:37;;;;;;;6.50;3.25;;;9.80;99.90;;;;;;5060790;28;20105;-81
2024/03/23 02:59:23;;;;;;;4.50;3.25;;;9.80;99.90;;;;;;5070463;28;20092;-83
2024/03/23 03:02:11;;;;;;;4.90;3.40;;;9.70;99.90;;;;;;5068715;28;20469;-81
2024/03/23 03:04:58;;;;;;;5.72;3.72;;;9.60;99.90;;;;;;5069955;28;20243;-82
2024/03/23 03:07:45;;;;;;;4.57;3.10;;;9.60;99.90;;;;;;5078273;28;20035;-82
2024/03/23 03:10:34;;;;;;;5.20;3.13;;;9.60;99.90;;;;;;5068230;28;20065;-79
2024/03/23 03:13:21;;;;;;;7.78;3.70;;;9.50;99.90;;;;;;5082570;28;20257;-84
2024/03/23 03:16:11;;;;;;;5.68;3.72;;;9.50;99.90;;;;;;5059999;28;20044;-82
2024/03/23 03:18:57;;;;;;;6.03;3.35;;;9.50;99.90;;;;;;5084120;28;20052;-79
2024/03/23 03:21:43;;;;;;;7.75;3.72;;;9.60;99.90;;;;;;5082182;28;20048;-81
2024/03/23 03:24:30;;;;;;;4.55;3.40;;;9.50;99.90;;;;;;5084635;28;20044;-82
2024/03/23 03:27:16;;;;;;;6.88;3.85;;;9.50;99.90;;;;;;5070157;28;20435;-79
2024/03/23 03:30:05;;;;;;;5.25;3.50;;;9.40;99.90;;;;;;5080881;28;20046;-81
2024/03/23 03:32:55;;;;;;;5.70;3.90;;;9.40;99.90;;;;;;5072770;28;20044;-82
2024/03/23 03:35:41;;;;;;;5.72;3.35;;;9.50;99.90;;;;;;5072498;28;20044;-80
2024/03/23 03:38:27;;;;;;;6.97;4.03;;;9.50;99.90;;;;;;5075844;28;20100;-80
2024/03/23 03:41:14;;;;;;;6.57;3.45;;;9.50;99.90;;;;;;5061114;28;20104;-85
2024/03/23 03:44:01;;;;;;;6.80;3.88;;;9.60;99.90;;;;;;5075689;28;20113;-79
2024/03/23 03:46:48;;;;;;;9.02;4.20;;;9.60;99.90;;;;;;5075447;28;20523;-82
2024/03/23 03:49:34;;;;;;;5.88;3.75;;;9.50;99.90;;;;;;5066541;28;20055;-83
2024/03/23 03:52:24;;;;;;;5.03;3.90;;;9.50;99.90;;;;;;5063742;28;20046;-82
2024/03/23 03:55:15;;;;;;;5.30;3.72;;;9.50;99.90;;;;;;5077431;28;20056;-77
2024/03/23 03:58:01;;;;;;;6.50;3.90;;;9.60;99.90;;;;;;5080792;28;20048;-83
2024/03/23 04:00:47;;;;;;;6.75;3.58;;;9.70;99.90;;;;;;5078631;28;20159;-76
2024/03/23 04:03:34;;;;;;;7.60;3.70;;;9.70;99.90;;;;;;5100360;28;20043;-80
2024/03/23 04:06:20;;;;;;;6.13;4.00;;;9.70;99.90;;;;;;5070682;28;20052;-82
2024/03/23 04:09:07;;;;;;;8.48;4.03;;;9.70;99.90;;;;;;5082311;28;20133;-82
2024/03/23 04:11:53;;;;;;;5.65;3.60;;;9.70;99.90;;;;;;5074650;28;20048;-81
2024/03/23 04:14:40;;;;;;;4.63;3.50;;;9.70;99.90;;;;;;5085205;28;20066;-79
2024/03/23 04:17:31;;;;;;;4.97;3.10;;;9.80;99.90;;;;;;5085519;28;20044;-85
2024/03/23 04:20:18;;;;;;;5.70;3.28;;;9.80;99.90;;;;;;5085541;28;20055;-83
2024/03/23 04:23:04;;;;;;;6.45;3.38;;;9.90;99.90;;;;;;5088850;28;20066;-84
2024/03/23 04:25:53;;;;;;;5.47;3.20;;;10.00;99.90;;;;;;5086235;28;20051;-82
2024/03/23 04:28:39;;;;;;;8.75;3.30;;;10.20;99.90;;;;;;5083687;28;20036;-84
2024/03/23 04:31:25;;;;;;;6.18;3.20;;;10.20;99.90;;;;;;5084183;28;20048;-83
2024/03/23 04:34:12;;;;;;;6.13;3.28;;;10.20;99.90;;;;;;5064633;28;20044;-83
2024/03/23 04:36:59;;;;;;;5.25;3.17;;;10.10;99.90;;;;;;5078419;28;20123;-82
2024/03/23 04:39:45;;;;;;;5.65;3.50;;;10.20;99.90;;;;;;5069583;28;20055;-79
2024/03/23 04:42:31;;;;;;;5.80;3.15;;;10.30;99.90;;;;;;5084068;28;20054;-84
2024/03/23 04:45:18;;;;;;;5.68;3.20;;;10.20;99.90;;;;;;5067079;28;20451;-77
2024/03/23 04:48:04;;;;;;;7.25;3.35;;;10.20;99.90;;;;;;5083045;28;20425;-85
2024/03/23 04:50:57;;;;;;;6.38;3.72;;;10.30;99.90;;;;;;5066267;28;20104;-85
2024/03/23 04:53:43;;;;;;;;;;;10.30;99.90;;;;;;5076102;28;20051;-81
2024/03/23 04:56:31;;;;;;;7.65;4.13;;;10.10;99.90;;;;;;5075348;28;20262;-83
2024/03/23 04:59:19;;;;;;;9.38;4.80;;;9.80;1.00;;;;;;5074631;28;20056;-85
2024/03/23 05:02:05;;;;;;;9.50;5.63;;;9.40;67.80;;;;;;5059968;28;20048;-84
2024/03/23 05:04:51;;;;;;;8.48;5.80;;;9.10;99.90;;;;;;5074525;28;20533;-85
2024/03/23 05:07:38;;;;;;;11.02;7.32;;;8.90;1.00;;;;;;5075128;28;20047;-84
2024/03/23 05:10:24;;;;;;;14.07;8.73;;;8.80;99.90;;;;;;5074284;28;20047;-83
2024/03/23 05:13:10;;;;;;;16.02;10.25;;;8.70;99.90;;;;;;5075766;28;20044;-84
2024/03/23 05:15:56;;;;;;;14.05;9.88;;;8.70;1.00;;;;;;5060927;28;20051;-84
2024/03/23 05:18:43;;;;;;;18.73;11.18;;;8.70;99.90;;;;;;5079984;28;20043;-77
2024/03/23 05:21:29;;;;;;;19.40;12.50;;;8.70;1.00;;;;;;5082086;28;20512;-82
2024/03/23 05:24:16;;;;;;;20.73;13.85;;;8.70;99.90;;;;;;5072945;28;20050;-86
2024/03/23 05:27:02;;;;;;;25.08;14.57;;;8.70;48.70;;;;;;5072250;28;20044;-86
2024/03/23 05:29:49;;;;;;;22.13;15.82;;;8.70;99.90;;;;;;5081844;28;20104;-86
2024/03/23 05:32:35;;;;;;;22.27;14.68;;;8.70;56.90;;;;;;5073316;28;20040;-82
2024/03/23 05:35:21;;;;;;;24.10;16.58;;;8.70;99.90;;;;;;5073322;28;20147;-87
2024/03/23 05:38:07;;;;;;;22.17;14.73;;;8.60;1.00;;;;;;5071908;28;20040;-82
2024/03/23 05:41:03;;;;;;;27.45;16.13;;;8.60;99.90;;;;;;5072583;28;20445;-84
2024/03/23 05:43:49;;;;;;;27.20;17.13;;;8.50;99.90;;;;;;5101076;28;20048;-85
2024/03/23 05:46:36;;;;;;;22.05;14.80;;;8.40;1.00;;;;;;5073428;28;20044;-83
2024/03/23 05:49:22;;;;;;;25.73;14.90;;;8.40;99.90;;;;;;5073648;28;20032;-86
2024/03/23 05:52:09;;;;;;;20.00;13.50;;;8.30;99.90;;;;;;5091459;28;20036;-78
2024/03/23 05:54:55;;;;;;;22.67;13.55;;;8.20;99.90;;;;;;5094256;28;20062;-79
2024/03/23 05:57:42;;;;;;;18.50;12.63;;;8.20;1.00;;;;;;5097354;28;20050;-81
2024/03/23 06:00:28;;;;;;;18.48;12.25;;;8.10;1.00;;;;;;5086205;28;20462;-83
2024/03/23 06:03:15;;;;;;;19.83;12.00;;;8.10;1.00;;;;;;5074398;28;20397;-77
2024/03/23 06:06:01;;;;;;;17.73;11.45;;;8.00;1.00;;;;;;5068069;28;20552;-83
2024/03/23 06:08:48;;;;;;;16.73;10.70;;;8.00;1.00;;;;;;5058188;28;20108;-83
2024/03/23 06:11:34;;;;;;;11.18;8.00;;;7.90;1.00;;;;;;5072723;28;20054;-84
2024/03/23 06:14:21;;;;;;;11.23;6.25;;;7.90;1.00;;;;;;5071494;28;20048;-83
2024/03/23 06:17:08;;;;;;;9.02;6.07;;;7.80;99.90;;;;;;5073795;28;20054;-83
2024/03/23 06:19:54;;;;;;;8.80;6.07;;;7.70;4.20;;;;;;5074226;28;20040;-86
2024/03/23 06:22:40;;;;;;;5.90;4.50;;;7.70;1.00;;;;;;5072948;28;20054;-82
2024/03/23 06:25:27;;;;;;;4.75;3.17;;;7.70;99.90;;;;;;5070917;28;20044;-84
2024/03/23 06:28:14;;;;;;;7.95;3.55;;;7.60;99.90;;;;;;5072777;28;20040;-79
2024/03/23 06:31:00;;;;;;;2.95;2.35;;;7.50;1.00;;;;;;5084232;28;20044;-84
2024/03/23 06:33:47;;;;;;;2.55;2.10;;;7.40;99.90;;;;;;5087105;28;20040;-80
2024/03/23 06:36:33;;;;;;;4.22;2.58;;;7.40;99.90;;;;;;5093164;28;20068;-84
2024/03/23 06:39:20;;;;;;;3.00;2.30;;;7.40;99.90;;;;;;5086587;28;20059;-84
2024/03/23 06:42:07;;;;;;;2.63;2.03;;;7.30;99.90;;;;;;5072993;28;20580;-84
2024/03/23 06:44:54;;;;;;;3.72;2.78;;;7.40;72.10;;;;;;5096524;28;20044;-82
2024/03/23 06:47:40;;;;;;;3.47;2.72;;;7.40;98.90;;;;;;5085789;28;20052;-81
2024/03/23 06:50:28;;;;;;;2.33;2.10;;;7.50;99.90;;;;;;5086019;28;20044;-84
2024/03/23 06:53:15;;;;;;;2.40;1.85;;;7.40;1.00;;;;;;5086474;28;20130;-82
2024/03/23 06:56:01;;;;;;;3.17;1.70;;;7.40;99.90;;;;;;5061180;28;20044;-81
2024/03/23 06:58:47;;;;;;;3.13;1.20;;;7.40;99.90;;;;;;5075523;28;20477;-81
2024/03/23 07:01:35;;;;;;;1.40;1.30;;;7.40;99.90;;;;;;5074349;28;20042;-81
2024/03/23 07:04:21;;;;;;;2.05;1.23;;;7.40;47.30;;;;;;5072304;28;20044;-83
2024/03/23 07:07:07;;;;;;;1.80;1.50;;;7.40;1.00;;;;;;5073470;28;20048;-83
2024/03/23 07:09:54;;;;;;;1.48;1.10;;;7.50;1.00;;;;;;5089154;28;20048;-82
2024/03/23 07:12:40;;;;;;;1.17;1.10;;;7.70;1.00;;;;;;5081233;28;20051;-83
2024/03/23 07:15:26;;;;;;;1.08;0.98;;;7.90;1.00;;;;;;5068123;28;20657;-82
2024/03/23 07:18:13;;;;;;;0.90;0.90;;;8.30;99.90;;;;;;5068239;28;20040;-79
2024/03/23 07:20:59;;;;;;;0.70;0.70;;;8.90;99.90;;;;;;5081212;28;20055;-80
2024/03/23 07:23:45;;;;;;;3.13;0.80;;;9.20;70.00;;;;;;5089035;28;20052;-81
2024/03/23 07:26:32;;;;;;;0.77;0.77;;;9.10;1.00;;;;;;5086912;28;20046;-84
2024/03/23 07:29:18;;;;;;;0.63;0.63;;;9.10;99.90;;;;;;5087499;28;20036;-80
2024/03/23 07:32:05;;;;;;;0.63;0.55;;;9.10;99.90;;;;;;5073256;28;20036;-84
2024/03/23 07:34:51;;;;;;;0.63;0.63;;;8.90;30.90;;;;;;5104389;28;20119;-81
2024/03/23 07:37:38;;;;;;;0.98;0.80;;;8.50;1.00;;;;;;5094046;28;20040;-83
2024/03/23 07:40:24;;;;;;;0.63;0.63;;;8.20;1.00;;;;;;5075908;28;20405;-82
2024/03/23 07:43:10;;;;;;;0.70;0.70;;;8.20;1.00;;;;;;5076055;28;20044;-76
2024/03/23 07:45:58;;;;;;;1.90;0.80;;;8.20;1.00;;;;;;5073219;28;20040;-81
2024/03/23 07:48:44;;;;;;;0.60;0.60;;;8.30;1.00;;;;;;5086049;28;20191;-84
2024/03/23 07:51:31;;;;;;;0.70;0.70;;;8.30;1.00;;;;;;5082124;28;20466;-80
2024/03/23 07:54:18;;;;;;;0.60;0.60;;;8.20;1.00;;;;;;5082039;28;20454;-83
2024/03/23 07:57:04;;;;;;;0.70;0.70;;;8.10;99.90;;;;;;5090925;28;20048;-81
2024/03/23 07:59:52;;;;;;;0.60;0.60;;;8.30;1.00;;;;;;5086622;28;20048;-82
2024/03/23 08:02:38;;;;;;;0.70;0.70;;;8.20;1.00;;;;;;5093946;28;20100;-79
2024/03/23 08:05:26;;;;;;;0.73;0.70;;;8.00;1.00;;;;;;5097217;28;20032;-82
2024/03/23 08:08:12;;;;;;;10.93;3.47;;;8.00;1.00;;;;;;5088465;28;20037;-81
2024/03/23 08:10:59;;;;;;;1.65;1.38;;;8.00;1.00;;;;;;5074789;28;20040;-83
2024/03/23 08:13:45;;;;;;;1.23;0.90;;;8.10;1.00;;;;;;5075083;28;20051;-82
2024/03/23 08:16:31;;;;;;;0.80;0.80;;;8.00;1.00;;;;;;5074202;28;20059;-80
2024/03/23 08:19:18;;;;;;;1.38;0.90;;;7.80;1.00;;;;;;5060303;28;20383;-81
2024/03/23 08:22:04;;;;;;;1.80;0.95;;;7.60;1.00;;;;;;5081207;28;20056;-81
2024/03/23 08:24:51;;;;;;;1.05;0.95;;;7.50;99.90;;;;;;5079109;28;20044;-83
2024/03/23 08:27:37;;;;;;;1.10;1.00;;;7.40;99.90;;;;;;5120205;27;20031;-76
2024/03/23 08:30:24;;;;;;;2.95;1.10;;;7.40;99.90;;;;;;5104220;28;20024;-78
2024/03/23 08:33:11;;;;;;;3.95;1.50;;;7.50;99.90;;;;;;5115871;28;20050;-79
2024/03/23 08:35:59;;;;;;;1.58;1.48;;;8.10;99.90;;;;;;5094575;28;20097;-79
2024/03/23 08:38:45;;;;;;;2.20;1.20;;;8.40;99.90;;;;;;5083385;28;20131;-84
2024/03/23 08:41:32;;;;;;;3.92;2.10;;;8.70;99.90;;;;;;5075682;28;20043;-80
2024/03/23 08:44:18;;;;;;;3.50;1.40;;;8.80;1.00;;;;;;5091489;28;20048;-81
2024/03/23 08:47:05;;;;;;;5.07;2.25;;;8.70;1.00;;;;;;5082163;28;20045;-83
2024/03/23 08:49:51;;;;;;;2.72;1.70;;;8.50;1.00;;;;;;5100894;28;20416;-82
2024/03/23 08:52:38;;;;;;;3.83;1.75;;;8.30;1.00;;;;;;5075355;28;20104;-82
2024/03/23 08:55:24;;;;;;;3.67;1.77;;;9.10;99.90;;;;;;5073184;28;20044;-81
2024/03/23 08:58:12;;;;;;;4.57;2.00;;;9.20;99.90;;;;;;5090624;28;20087;-83
2024/03/23 09:01:05;;;;;;;4.38;2.17;;;8.80;99.90;;;;;;5100781;28;20043;-80
2024/03/23 09:03:51;;;;;;;5.70;2.42;;;8.40;99.90;;;;;;5090394;28;20099;-79
2024/03/23 09:06:37;;;;;;;6.28;2.80;;;8.10;99.90;;;;;;5113143;28;20028;-78
2024/03/23 09:09:24;;;;;;;8.45;3.95;;;7.80;99.90;;;;;;5108641;28;20092;-81
2024/03/23 09:12:10;;;;;;;9.82;4.10;;;7.50;99.90;;;;;;5084988;28;20070;-80
2024/03/23 09:14:56;;;;;;;8.02;4.18;;;7.30;99.90;;;;;;5100009;28;20044;-83
2024/03/23 09:17:43;;;;;;;7.82;3.30;;;8.00;1.00;;;;;;5089696;28;20043;-82
2024/03/23 09:20:32;;;;;;;8.25;2.97;;;8.60;99.90;;;;;;5087879;28;20097;-82
2024/03/23 09:23:19;;;;;;;7.05;3.05;;;9.00;99.90;;;;;;5088942;28;20036;-81
2024/03/23 09:26:08;;;;;;;7.50;3.25;;;9.00;99.90;;;;;;5087626;28;20044;-81
2024/03/23 09:28:55;;;;;;;7.60;4.25;;;8.90;99.90;;;;;;5086998;28;20115;-80
2024/03/23 09:31:41;;;;;;;7.80;3.70;;;8.80;99.90;;;;;;5073467;28;20046;-78
2024/03/23 09:34:27;;;;;;;9.52;3.65;;;9.00;99.90;;;;;;5073609;28;20048;-81
2024/03/23 09:37:13;;;;;;;7.95;3.58;;;9.20;99.90;;;;;;5073973;28;20044;-83
2024/03/23 09:40:00;;;;;;;9.90;4.30;;;8.90;99.90;;;;;;5087365;28;20071;-79
2024/03/23 09:42:52;;;;;;;10.23;4.22;;;8.70;99.90;;;;;;5087042;28;20048;-80
2024/03/23 09:45:43;;;;;;;13.10;4.38;;;8.40;99.90;;;;;;5092182;28;20123;-80
2024/03/23 09:48:30;;;;;;;10.95;4.63;;;8.30;99.90;;;;;;5067837;28;20066;-81
2024/03/23 09:51:16;;;;;;;10.05;4.32;;;8.30;99.90;;;;;;5059660;28;20052;-79
2024/03/23 09:54:03;;;;;;;9.65;3.83;;;8.30;99.90;;;;;;5074697;28;20044;-82
2024/03/23 09:56:49;;;;;;;9.20;4.68;;;8.30;99.90;;;;;;5080626;28;20153;-82
2024/03/23 09:59:36;;;;;;;9.05;5.05;;;8.40;99.90;;;;;;5074616;28;20100;-83
2024/03/23 10:02:22;;;;;;;11.35;4.63;;;8.30;99.90;;;;;;5076220;28;20044;-82
2024/03/23 10:05:23;;;;;;;8.77;3.30;;;9.20;99.90;;;;;;5074534;28;20062;-82
2024/03/23 10:08:15;;;;;;;10.23;3.80;;;10.40;99.90;;;;;;5076973;28;20171;-81
2024/03/23 10:11:15;;;;;;;6.05;3.58;;;11.20;99.90;;;;;;5076743;28;20044;-80
2024/03/23 10:14:01;;;;;;;8.50;3.50;;;11.50;99.90;;;;;;5056223;28;20047;-82
2024/03/23 10:16:47;;;;;;;10.27;3.67;;;11.70;94.50;;;;;;5073632;28;20040;-81
2024/03/23 10:19:34;;;;;;;10.35;3.83;;;12.80;60.40;;;;;;5061429;28;20051;-80
2024/03/23 10:22:22;;;;;;;7.40;3.33;;;12.60;24.70;;;;;;5078438;28;20123;-81
2024/03/23 10:25:10;;;;;;;11.82;3.90;;;11.90;15.70;;;;;;5072254;28;20523;-81
2024/03/23 10:28:03;;;;;;;8.75;3.70;;;12.10;9.50;;;;;;5081039;28;20048;-77
2024/03/23 10:30:50;;;;;;;11.73;4.60;;;11.20;1.00;;;;;;5073936;28;20036;-83
2024/03/23 10:33:36;;;;;;;11.55;4.28;;;10.20;1.00;;;;;;5083161;28;20047;-81
2024/03/23 10:36:24;;;;;;;8.93;3.55;;;10.00;2.40;;;;;;5082542;28;20036;-82
2024/03/23 10:39:11;;;;;;;9.95;4.20;;;10.00;1.00;;;;;;5073760;28;20044;-81
2024/03/23 10:42:00;;;;;;;10.07;3.95;;;9.70;1.00;;;;;;5059859;28;20051;-78
2024/03/23 10:44:46;;;;;;;10.57;4.70;;;9.30;8.50;;;;;;5076639;28;20048;-81
2024/03/23 10:47:35;;;;;;;9.07;3.67;;;8.50;21.90;;;;;;5072644;28;20047;-82
2024/03/23 10:50:22;;;;;;;8.77;2.90;;;7.50;99.90;;;;;;5073771;28;20044;-80
2024/03/23 10:53:09;;;;;;;6.57;3.10;;;5.90;99.90;;;;;;5073180;28;20094;-81
2024/03/23 10:55:56;;;;;;;5.35;3.22;;;5.00;99.90;;;;;;5072267;28;20054;-84
2024/03/23 10:58:49;;;;;;;9.65;3.28;;;5.10;1.00;;;;;;5072580;28;20044;-81
2024/03/23 11:01:38;;;;;;;9.65;3.90;;;5.10;1.00;;;;;;5071969;28;20040;-82
2024/03/23 11:04:42;;;;;;;15.07;3.88;;;5.10;99.90;;;;;;5073390;28;20065;-82
2024/03/23 11:07:32;;;;;;;15.00;4.75;;;5.10;99.90;;;;;;5072941;28;20047;-82
2024/03/23 11:10:30;;;;;;;4.82;3.10;;;5.20;99.90;;;;;;5072808;28;20170;-86
2024/03/23 11:13:23;;;;;;;14.55;4.15;;;5.60;99.90;;;;;;5072312;28;20054;-85
2024/03/23 11:16:27;;;;;;;7.88;3.47;;;6.90;1.00;;;;;;5073106;28;20496;-84
2024/03/23 11:19:33;;;;;;;8.02;3.03;;;7.70;1.00;;;;;;5072079;28;20336;-82
2024/03/23 11:22:40;;;;;;;9.57;3.10;;;7.00;99.90;;;;;;5072526;28;20052;-77
2024/03/23 11:25:30;;;;;;;6.25;3.20;;;6.70;99.90;;;;;;5075802;28;20101;-84
2024/03/23 11:28:17;;;;;;;8.07;2.60;;;7.10;99.90;;;;;;5076874;28;20492;-85
2024/03/23 11:31:10;;;;;;;9.52;4.25;;;8.20;99.90;;;;;;5074045;28;20047;-84
2024/03/23 11:34:05;;;;;;;7.93;2.20;;;8.80;99.90;;;;;;5074492;28;20043;-83
2024/03/23 11:37:05;;;;;;;6.75;2.50;;;8.80;23.80;;;;;;5074133;28;20127;-83
2024/03/23 11:39:51;;;;;;;9.32;2.75;;;8.60;1.00;;;;;;5079317;28;20046;-79
2024/03/23 11:42:38;;;;;;;9.18;2.58;;;8.20;1.00;;;;;;5084006;28;20040;-84
2024/03/23 11:45:24;;;;;;;8.02;2.30;;;8.20;1.00;;;;;;5074460;28;20060;-80
2024/03/23 11:48:19;;;;;;;7.30;2.25;;;8.30;1.00;;;;;;5075710;28;20044;-84
2024/03/23 11:51:06;;;;;;;11.35;2.47;;;8.40;99.90;;;;;;5081636;28;20048;-82
2024/03/23 11:53:53;;;;;;;7.90;2.20;;;8.40;99.90;;;;;;5075342;28;20044;-78
2024/03/23 11:56:39;;;;;;;11.20;1.95;;;8.30;99.90;;;;;;5087897;28;20048;-81
2024/03/23 11:59:40;;;;;;;8.73;2.20;;;8.60;99.90;;;;;;5087746;28;20028;-78
2024/03/23 12:02:26;;;;;;;9.07;2.42;;;8.50;99.90;;;;;;5076754;28;20131;-82
2024/03/23 12:05:16;;;;;;;9.82;3.10;;;8.50;99.90;;;;;;5076608;28;20044;-82
2024/03/23 12:08:41;;;;;;;10.30;2.78;;;8.50;99.90;;;;;;5060145;28;20040;-83
2024/03/23 12:11:27;;;;;;;6.70;2.60;;;8.50;99.90;;;;;;4974405;28;20046;-82
2024/03/23 12:14:15;;;;;;;7.93;2.97;;;8.50;99.90;;;;;;4976151;28;20042;-80
2024/03/23 12:17:13;;;;;;;9.13;2.95;;;8.30;99.90;;;;;;5063463;28;20050;-81
2024/03/23 12:19:59;;;;;;;10.93;3.60;;;7.70;99.90;;;;;;5074249;28;20048;-84
2024/03/23 12:22:46;;;;;;;10.02;3.58;;;7.60;99.90;;;;;;5103625;28;20123;-83
2024/03/23 12:25:34;;;;;;;9.70;3.45;;;7.60;99.90;;;;;;5074191;28;20040;-82
2024/03/23 12:28:20;;;;;;;11.40;3.13;;;7.60;99.90;;;;;;5073798;28;20108;-80
2024/03/23 12:31:06;;;;;;;9.77;3.35;;;7.50;99.90;;;;;;5092891;28;20093;-79
2024/03/23 12:33:53;;;;;;;13.50;3.75;;;7.50;99.90;;;;;;5074083;28;20048;-82
2024/03/23 12:36:39;;;;;;;18.17;4.38;;;7.50;99.90;;;;;;5066051;28;20070;-80
2024/03/23 12:39:26;;;;;;;14.50;4.88;;;7.60;99.90;;;;;;5095972;28;20043;-82
2024/03/23 12:42:12;;;;;;;13.00;4.45;;;8.00;99.90;;;;;;5068870;28;20047;-81
2024/03/23 12:44:58;;;;;;;13.07;4.22;;;7.80;99.90;;;;;;5083046;28;20044;-83
2024/03/23 12:47:45;;;;;;;10.45;4.13;;;7.60;99.90;;;;;;5073274;28;20040;-82
2024/03/23 12:50:31;;;;;;;8.80;3.50;;;7.40;99.90;;;;;;5075248;28;20044;-80
2024/03/23 12:53:18;;;;;;;13.18;4.60;;;7.30;99.90;;;;;;5073763;28;20046;-81
2024/03/23 12:56:04;;;;;;;11.95;3.83;;;7.90;99.90;;;;;;5072878;28;20400;-79
2024/03/23 12:58:51;;;;;;;15.15;4.60;;;8.00;99.90;;;;;;5076090;28;20040;-81
2024/03/23 13:01:37;;;;;;;10.25;3.45;;;7.80;99.90;;;;;;5075551;28;20046;-84
2024/03/23 13:04:27;;;;;;;11.98;4.10;;;7.60;99.90;;;;;;5074175;28;20050;-85
2024/03/23 13:07:13;;;;;;;13.85;5.82;;;7.50;99.90;;;;;;5075317;28;20048;-80
2024/03/23 13:09:59;;;;;;;8.20;3.03;;;7.40;99.90;;;;;;5076868;28;20394;-83
2024/03/23 13:12:46;;;;;;;5.22;1.80;;;6.90;99.90;;;;;;5074171;28;20084;-83
2024/03/23 13:15:33;;;;;;;2.00;1.42;;;6.20;99.90;;;;;;5077981;28;20420;-77
2024/03/23 13:18:20;;;;;;;5.60;1.73;;;5.90;99.90;;;;;;5085395;28;20050;-83
2024/03/23 13:21:06;;;;;;;3.40;1.42;;;5.80;99.90;;;;;;5075822;28;20044;-80
2024/03/23 13:23:53;;;;;;;10.18;3.13;;;5.90;99.90;;;;;;5084927;28;20044;-80
2024/03/23 13:26:39;;;;;;;7.97;1.95;;;7.30;99.90;;;;;;5076481;28;20047;-83
2024/03/23 13:29:25;;;;;;;5.32;1.63;;;8.90;99.90;;;;;;5076690;28;20047;-81
2024/03/23 13:32:12;;;;;;;4.43;1.50;;;9.40;90.00;;;;;;5077115;28;20043;-84
2024/03/23 13:34:58;;;;;;;3.78;1.65;;;10.60;74.30;;;;;;5076722;28;20044;-84
2024/03/23 13:37:45;;;;;;;3.75;1.20;;;11.10;33.50;;;;;;5076253;28;20059;-83
2024/03/23 13:40:31;;;;;;;3.58;1.10;;;11.90;19.60;;;;;;5074629;28;20043;-83
2024/03/23 13:43:17;;;;;;;5.50;1.63;;;12.40;1.00;;;;;;5074317;28;20165;-83
2024/03/23 13:46:04;;;;;;;4.20;1.80;;;12.30;1.00;;;;;;5075106;28;20043;-81
2024/03/23 13:48:51;;;;;;;5.10;1.65;;;12.30;1.00;;;;;;5098655;28;20042;-82
2024/03/23 13:51:37;;;;;;;5.80;2.15;;;12.80;1.00;;;;;;5069726;28;20361;-83
2024/03/23 13:54:25;;;;;;;7.35;2.20;;;12.80;1.00;;;;;;5084441;28;20040;-81
2024/03/23 13:57:11;;;;;;;5.20;2.08;;;12.60;1.00;;;;;;5070532;28;20048;-81
2024/03/23 13:59:58;;;;;;;4.47;1.77;;;13.10;1.00;;;;;;5073686;28;20109;-82
2024/03/23 14:02:44;;;;;;;7.65;2.28;;;12.00;1.00;;;;;;5075517;28;20131;-83
2024/03/23 14:05:31;;;;;;;5.35;2.25;;;9.90;1.00;;;;;;5075247;28;20054;-79
2024/03/23 14:08:21;;;;;;;10.02;2.20;;;8.70;1.00;;;;;;5076118;28;20044;-83
2024/03/23 14:11:09;;;;;;;5.57;2.13;;;7.80;14.70;;;;;;5076878;28;20040;-84
2024/03/23 14:13:55;;;;;;;8.02;2.80;;;6.90;99.90;;;;;;5076360;28;20046;-81
2024/03/23 14:16:41;;;;;;;6.75;2.38;;;6.40;99.90;;;;;;5075833;28;20048;-83
2024/03/23 14:19:28;;;;;;;7.53;2.70;;;7.30;99.90;;;;;;5075426;28;20036;-82
2024/03/23 14:22:15;;;;;;;8.30;2.78;;;8.60;99.90;;;;;;5073864;28;20044;-80
2024/03/23 14:25:01;;;;;;;7.55;1.92;;;9.90;99.90;;;;;;5072302;28;20040;-82
2024/03/23 14:27:48;;;;;;;7.88;1.98;;;10.90;99.90;;;;;;5083374;28;20044;-82
2024/03/23 14:30:35;;;;;;;7.30;1.90;;;9.90;99.90;;;;;;5067588;28;20047;-81
2024/03/23 14:33:22;;;;;;;4.22;1.45;;;9.60;99.90;;;;;;5082601;28;20044;-81
2024/03/23 14:36:08;;;;;;;6.55;1.30;;;9.20;99.90;;;;;;5071683;28;20061;-77
2024/03/23 14:38:54;;;;;;;4.00;1.27;;;8.90;99.90;;;;;;5092300;28;20046;-83